Accueil
METAR-TAF:

METAR-TAF

Aéroports :

Ardabil, Iran

latitude: 38-19-35N, longitude: 048-25-28E, altitude: 1315 m

Observation

Le bulletin a été fait il y a 14 minutes, à 15:00 UTC
Vent 10 kt de est
Température -4°C
Humidité 80%
Pression 1024 hPa
Visibilité 10 km ou plus
Quelques nuages à une hauteur de 2500 ft
brouillard à proximité,

METAR: OITL 291500Z 08010KT 9999 VCFG FEW025 M04/M07 Q1024 NOSIG

Heure: 18:44 (15:14 UTC)

Prévision

Le bulletin a été fait il y a 54 minutes, à 14:20 UTC
Prévision valable du 29 à 15 UTC au 29 à 24 UTC
Vent 12 kt de est
Visibilité: 8000 m
Quelques nuages à une hauteur de 2500 ft
Evoluant progressivement
du 29 à 19 UTC au 29 à 21 UTC
Vent 8 kt de ouest/sud-ouest

TAF: OITL 291420Z 2915/2924 08012KT 8000 FEW025 BECMG 2919/2921 24008KT

Observations et prévisions météorologiques de plus de 4000 aéroports (messages METAR et TAF).

Les stations disponibles sont représentées par des disques jaunes et rouges sur la carte.

Passer la souris dessus pour voir le nom de la station.

Cliquer dessus pour voir les observations et prévisions météorologiques.

Pour changer de carte: cliquez sur les boutons verts avec une croix noire pour zoomer, sur le bouton vert avec un tiret pour effectuer un zoom arrière, ou sur les flèches vertes pour les cartes adjacentes.


METAR-TAF: